Time;durP1;ratioP1;P1;durP2;ratioP2;P2;SDS_P1;SDS_P2;PMS_P1;PMS_P2;Temp;Humidity;BMP_temperature;BMP_pressure;BME280_temperature;BME280_humidity;BME280_pressure;Samples;Min_cycle;Max_cycle;Signal;HPM_P1;HPM_P2
2021/09/02 00:00:10;;;;;;;8.93;6.37;;;;;;;;;;6380622;22;20410;-72
2021/09/02 00:02:36;;;;;;;7.53;6.73;;;;;;;;;;6380703;22;20496;-72
2021/09/02 00:05:02;;;;;;;9.57;6.80;;;;;;;;;;6380665;22;20356;-72
2021/09/02 00:07:28;;;;;;;8.53;6.40;;;;;;;;;;6380745;22;20363;-71
2021/09/02 00:12:57;;;;;;;7.90;5.60;;;;;;;;;;6380589;22;20386;-72
2021/09/02 00:15:23;;;;;;;6.40;5.57;;;;;;;;;;6380630;22;20814;-71
2021/09/02 00:17:49;;;;;;;7.70;6.13;;;;;;;;;;6380579;22;20446;-72
2021/09/02 00:20:15;;;;;;;6.77;5.67;;;;;;;;;;6370251;22;20495;-72
2021/09/02 00:22:41;;;;;;;8.27;6.10;;;;;;;;;;6380626;22;20402;-72
2021/09/02 00:28:11;;;;;;;7.07;6.20;;;;;;;;;;6380366;22;20406;-72
2021/09/02 00:30:37;;;;;;;6.90;6.30;;;;;;;;;;6380275;22;20714;-72
2021/09/02 00:33:03;;;;;;;7.90;6.50;;;;;;;;;;6369887;22;20375;-72
2021/09/02 00:35:29;;;;;;;7.10;5.80;;;;;;;;;;6369993;22;20667;-72
2021/09/02 00:37:55;;;;;;;6.70;5.20;;;;;;;;;;6380401;22;20463;-72
2021/09/02 00:40:21;;;;;;;9.30;6.80;;;;;;;;;;6341408;22;20438;-72
2021/09/02 00:42:47;;;;;;;7.60;6.30;;;;;;;;;;6379976;22;20371;-73
2021/09/02 00:45:13;;;;;;;11.00;6.73;;;;;;;;;;6380168;22;20371;-72
2021/09/02 00:47:39;;;;;;;7.97;6.27;;;;;;;;;;6380162;22;20360;-72
2021/09/02 00:50:05;;;;;;;9.50;6.33;;;;;;;;;;6380377;22;20375;-72
2021/09/02 00:52:32;;;;;;;9.30;6.70;;;;;;;;;;6380173;22;20814;-73
2021/09/02 00:58:02;;;;;;;12.37;6.97;;;;;;;;;;6379922;22;20378;-72
2021/09/02 01:00:28;;;;;;;7.93;6.40;;;;;;;;;;6369725;22;20427;-72
2021/09/02 01:02:54;;;;;;;12.67;7.43;;;;;;;;;;6369336;22;20399;-72
2021/09/02 01:05:20;;;;;;;7.30;6.60;;;;;;;;;;6380015;22;20383;-73
2021/09/02 01:07:46;;;;;;;6.30;5.70;;;;;;;;;;6380069;22;20675;-72
2021/09/02 01:13:19;;;;;;;8.40;7.50;;;;;;;;;;6380029;22;20529;-73
2021/09/02 01:15:45;;;;;;;7.20;6.17;;;;;;;;;;6380094;22;20374;-73
2021/09/02 01:18:11;;;;;;;7.80;7.00;;;;;;;;;;6369795;22;20379;-72
2021/09/02 01:20:37;;;;;;;9.53;6.47;;;;;;;;;;6369646;22;20510;-72
2021/09/02 01:28:52;;;;;;;8.40;6.70;;;;;;;;;;6380018;22;20374;-72
2021/09/02 01:31:19;;;;;;;7.53;6.77;;;;;;;;;;6379716;22;20363;-72
2021/09/02 01:33:46;;;;;;;10.60;6.90;;;;;;;;;;6341076;22;20383;-72
2021/09/02 01:36:12;;;;;;;8.30;6.90;;;;;;;;;;6379655;22;20553;-72
2021/09/02 01:38:38;;;;;;;7.10;6.40;;;;;;;;;;6379815;22;20449;-72
2021/09/02 01:41:04;;;;;;;9.90;6.50;;;;;;;;;;6369183;22;20454;-71
2021/09/02 01:43:30;;;;;;;9.47;8.03;;;;;;;;;;6379721;22;20454;-71
2021/09/02 01:45:56;;;;;;;7.87;7.07;;;;;;;;;;6379763;22;20831;-72
2021/09/02 01:48:22;;;;;;;8.93;6.97;;;;;;;;;;6379852;22;20443;-72
2021/09/02 01:50:48;;;;;;;7.53;6.57;;;;;;;;;;6379802;22;20381;-72
2021/09/02 01:59:03;;;;;;;7.80;6.53;;;;;;;;;;6379802;22;20910;-71
2021/09/02 02:01:29;;;;;;;8.40;5.93;;;;;;;;;;6379625;22;20423;-72
2021/09/02 02:03:55;;;;;;;7.47;6.70;;;;;;;;;;6379815;22;20913;-72
2021/09/02 02:06:21;;;;;;;8.03;7.07;;;;;;;;;;6379679;22;20374;-72
2021/09/02 02:08:47;;;;;;;8.40;6.30;;;;;;;;;;6379856;22;20371;-72
2021/09/02 02:11:13;;;;;;;7.43;6.70;;;;;;;;;;6379435;22;20371;-73
2021/09/02 02:13:40;;;;;;;9.07;6.90;;;;;;;;;;6341304;22;20406;-72
2021/09/02 02:16:06;;;;;;;7.03;6.30;;;;;;;;;;6379745;22;20829;-72
2021/09/02 02:18:32;;;;;;;7.30;6.30;;;;;;;;;;6379779;22;20387;-72
2021/09/02 02:20:57;;;;;;;7.23;6.53;;;;;;;;;;6379542;22;20736;-72
2021/09/02 02:23:23;;;;;;;9.23;7.20;;;;;;;;;;6379664;22;20364;-71
2021/09/02 02:28:53;;;;;;;10.13;7.13;;;;;;;;;;6379734;22;20386;-72
2021/09/02 02:31:19;;;;;;;8.00;6.50;;;;;;;;;;6379644;22;20814;-72
2021/09/02 02:33:45;;;;;;;8.10;7.27;;;;;;;;;;6379745;22;20356;-72
2021/09/02 02:36:11;;;;;;;9.13;7.37;;;;;;;;;;6379565;22;20355;-73
2021/09/02 02:38:37;;;;;;;10.03;7.57;;;;;;;;;;6379700;22;20358;-73
2021/09/02 02:41:03;;;;;;;12.30;6.67;;;;;;;;;;6379317;22;20415;-73
2021/09/02 02:43:29;;;;;;;8.57;7.37;;;;;;;;;;6379667;22;20363;-72
2021/09/02 02:45:58;;;;;;;7.67;6.90;;;;;;;;;;6379431;22;20393;-71
2021/09/02 02:48:24;;;;;;;9.47;7.10;;;;;;;;;;6371211;22;20459;-72
2021/09/02 02:50:50;;;;;;;8.20;6.80;;;;;;;;;;6381567;22;20371;-72
2021/09/02 02:53:16;;;;;;;9.90;6.80;;;;;;;;;;6343159;22;20865;-72
2021/09/02 02:58:47;;;;;;;8.60;6.50;;;;;;;;;;6381167;22;20462;-73
2021/09/02 03:01:13;;;;;;;10.00;7.97;;;;;;;;;;6381228;22;20415;-72
2021/09/02 03:03:39;;;;;;;9.10;7.30;;;;;;;;;;6370982;22;20375;-72
2021/09/02 03:06:05;;;;;;;9.67;7.60;;;;;;;;;;6381308;22;20372;-72
2021/09/02 03:08:31;;;;;;;9.60;8.27;;;;;;;;;;6370741;22;20380;-72
2021/09/02 03:14:01;;;;;;;9.90;7.93;;;;;;;;;;6381536;22;20375;-73
2021/09/02 03:16:27;;;;;;;9.50;7.33;;;;;;;;;;6370940;22;20706;-72
2021/09/02 03:18:53;;;;;;;8.93;6.70;;;;;;;;;;6381401;22;20363;-72
2021/09/02 03:21:19;;;;;;;8.23;7.43;;;;;;;;;;6370783;22;20487;-73
2021/09/02 03:23:45;;;;;;;12.23;7.80;;;;;;;;;;6370970;22;20380;-73
2021/09/02 03:29:15;;;;;;;9.17;8.17;;;;;;;;;;6381436;22;20471;-73
2021/09/02 03:31:40;;;;;;;8.77;7.87;;;;;;;;;;6381052;22;20730;-72
2021/09/02 03:34:06;;;;;;;8.30;7.50;;;;;;;;;;6380938;22;20675;-72
2021/09/02 03:36:32;;;;;;;7.50;6.50;;;;;;;;;;6380767;22;20359;-73
2021/09/02 03:38:58;;;;;;;8.57;7.67;;;;;;;;;;6381051;22;20363;-72
2021/09/02 03:41:24;;;;;;;8.87;7.97;;;;;;;;;;6380825;22;20418;-72
2021/09/02 03:43:50;;;;;;;9.70;8.70;;;;;;;;;;6381032;22;20682;-72
2021/09/02 03:46:16;;;;;;;11.50;7.20;;;;;;;;;;6380966;22;20462;-72
2021/09/02 03:48:42;;;;;;;10.57;7.93;;;;;;;;;;6381065;22;20363;-72
2021/09/02 03:51:08;;;;;;;12.23;8.07;;;;;;;;;;6380907;22;20836;-72
2021/09/02 03:53:34;;;;;;;9.57;8.30;;;;;;;;;;6381043;22;20483;-72
2021/09/02 03:59:04;;;;;;;13.47;9.17;;;;;;;;;;6380853;22;20370;-72
2021/09/02 04:01:30;;;;;;;8.90;7.90;;;;;;;;;;6370338;22;20430;-72
2021/09/02 04:03:56;;;;;;;9.73;8.10;;;;;;;;;;6380636;22;20413;-72
2021/09/02 04:06:22;;;;;;;9.97;8.97;;;;;;;;;;6380734;22;20367;-72
2021/09/02 04:08:48;;;;;;;10.20;8.73;;;;;;;;;;6380759;22;20355;-72
2021/09/02 04:14:17;;;;;;;8.87;7.70;;;;;;;;;;6380790;22;20414;-72
2021/09/02 04:16:43;;;;;;;10.23;9.13;;;;;;;;;;6370250;22;20367;-72
2021/09/02 04:19:09;;;;;;;8.90;8.10;;;;;;;;;;6380586;22;20838;-72
2021/09/02 04:21:35;;;;;;;10.60;8.20;;;;;;;;;;6380315;22;20426;-72
2021/09/02 04:24:01;;;;;;;8.73;7.20;;;;;;;;;;6380680;22;20382;-72
2021/09/02 04:29:30;;;;;;;9.33;7.80;;;;;;;;;;6380640;22;20382;-72
2021/09/02 04:31:56;;;;;;;8.80;7.90;;;;;;;;;;6380280;22;20395;-72
2021/09/02 04:34:22;;;;;;;10.00;7.93;;;;;;;;;;6380525;22;20371;-72
2021/09/02 04:36:48;;;;;;;10.23;7.33;;;;;;;;;;6380623;22;20666;-72
2021/09/02 04:39:15;;;;;;;8.87;7.83;;;;;;;;;;6380423;22;20387;-72
2021/09/02 04:44:45;;;;;;;12.60;8.20;;;;;;;;;;6380378;22;20899;-72
2021/09/02 04:47:10;;;;;;;8.80;6.80;;;;;;;;;;6380275;22;20435;-72
2021/09/02 04:49:36;;;;;;;11.93;8.70;;;;;;;;;;6370036;22;20437;-72
2021/09/02 04:52:02;;;;;;;10.17;8.77;;;;;;;;;;6380575;22;20382;-72
2021/09/02 04:54:28;;;;;;;8.17;7.30;;;;;;;;;;6381342;22;20399;-73
2021/09/02 04:56:54;;;;;;;11.30;8.03;;;;;;;;;;6369891;22;20436;-73
2021/09/02 04:59:20;;;;;;;12.67;8.43;;;;;;;;;;6379842;22;20822;-73
2021/09/02 05:01:46;;;;;;;8.60;7.70;;;;;;;;;;6380215;22;20407;-72
2021/09/02 05:04:12;;;;;;;10.27;8.17;;;;;;;;;;6380176;22;20356;-73
2021/09/02 05:06:38;;;;;;;11.73;8.00;;;;;;;;;;6380116;22;20379;-73
2021/09/02 05:09:04;;;;;;;9.67;8.17;;;;;;;;;;6379762;22;20836;-72
2021/09/02 05:14:34;;;;;;;11.27;8.00;;;;;;;;;;6380202;22;20686;-73
2021/09/02 05:17:00;;;;;;;10.43;8.07;;;;;;;;;;6380089;22;20454;-73
2021/09/02 05:19:26;;;;;;;9.17;8.27;;;;;;;;;;6379882;22;20833;-72
2021/09/02 05:21:52;;;;;;;9.67;7.57;;;;;;;;;;6379853;22;20397;-72
2021/09/02 05:24:18;;;;;;;9.17;7.67;;;;;;;;;;6380008;22;20360;-72
2021/09/02 05:29:47;;;;;;;10.90;7.90;;;;;;;;;;6380194;22;20420;-72
2021/09/02 05:32:13;;;;;;;10.03;8.03;;;;;;;;;;6379989;22;20806;-72
2021/09/02 05:34:39;;;;;;;9.60;7.60;;;;;;;;;;6379900;22;20359;-72
2021/09/02 05:37:05;;;;;;;9.90;8.77;;;;;;;;;;6369204;22;20701;-72
2021/09/02 05:39:31;;;;;;;10.30;8.83;;;;;;;;;;6369503;22;20466;-73
2021/09/02 05:45:01;;;;;;;9.40;8.37;;;;;;;;;;6379950;22;20702;-73
2021/09/02 05:47:27;;;;;;;10.60;8.50;;;;;;;;;;6369230;22;20367;-72
2021/09/02 05:49:53;;;;;;;9.97;8.70;;;;;;;;;;6379907;22;20356;-73
2021/09/02 05:52:19;;;;;;;10.03;8.30;;;;;;;;;;6379795;22;20359;-73
2021/09/02 05:54:48;;;;;;;9.30;8.40;;;;;;;;;;6369199;22;20817;-72
2021/09/02 05:57:13;;;;;;;10.13;8.70;;;;;;;;;;6369342;22;20489;-72
2021/09/02 05:59:39;;;;;;;9.37;8.47;;;;;;;;;;6378944;22;20449;-72
2021/09/02 06:02:05;;;;;;;11.30;9.33;;;;;;;;;;6379757;22;20367;-72
2021/09/02 06:04:31;;;;;;;10.57;9.47;;;;;;;;;;6379733;22;20393;-72
2021/09/02 06:06:57;;;;;;;10.47;8.90;;;;;;;;;;6379621;22;20706;-72
2021/09/02 06:09:23;;;;;;;10.17;9.10;;;;;;;;;;6379850;22;20355;-72
2021/09/02 06:14:53;;;;;;;10.40;9.00;;;;;;;;;;6379889;22;20767;-72
2021/09/02 06:17:19;;;;;;;12.13;9.70;;;;;;;;;;6379703;22;20390;-72
2021/09/02 06:19:45;;;;;;;12.67;8.70;;;;;;;;;;6380417;22;20772;-71
2021/09/02 06:22:11;;;;;;;10.33;8.10;;;;;;;;;;6368210;22;20379;-72
2021/09/02 06:24:37;;;;;;;10.13;8.03;;;;;;;;;;6381894;22;20363;-71
2021/09/02 06:30:06;;;;;;;11.73;7.77;;;;;;;;;;6381827;22;20378;-72
2021/09/02 06:32:32;;;;;;;9.27;8.03;;;;;;;;;;6371568;22;20377;-72
2021/09/02 06:34:58;;;;;;;8.17;7.30;;;;;;;;;;6343104;22;20421;-72
2021/09/02 06:37:24;;;;;;;14.30;8.67;;;;;;;;;;6381634;22;20406;-72
2021/09/02 06:39:50;;;;;;;9.57;7.90;;;;;;;;;;6381670;22;20450;-72
2021/09/02 06:45:20;;;;;;;12.13;7.20;;;;;;;;;;6381582;22;20424;-72
2021/09/02 06:47:46;;;;;;;9.17;8.20;;;;;;;;;;6381620;22;20830;-72
2021/09/02 06:50:13;;;;;;;8.80;7.83;;;;;;;;;;6381666;22;20367;-72
2021/09/02 06:52:39;;;;;;;13.57;8.97;;;;;;;;;;6379914;22;20378;-72
2021/09/02 06:55:07;;;;;;;13.17;9.03;;;;;;;;;;6381622;22;20373;-72
2021/09/02 07:00:36;;;;;;;13.93;8.50;;;;;;;;;;6380765;22;20429;-71
2021/09/02 07:03:02;;;;;;;13.23;8.73;;;;;;;;;;6380690;22;20375;-71
2021/09/02 07:05:28;;;;;;;14.03;8.77;;;;;;;;;;6380690;22;20383;-71
2021/09/02 07:07:54;;;;;;;11.13;9.37;;;;;;;;;;6380606;22;20432;-71
2021/09/02 07:10:20;;;;;;;11.53;7.83;;;;;;;;;;6379620;22;20913;-71
2021/09/02 07:15:50;;;;;;;12.40;8.97;;;;;;;;;;6380249;22;20382;-71
2021/09/02 07:18:16;;;;;;;10.10;8.53;;;;;;;;;;6380451;22;20379;-71
2021/09/02 07:20:42;;;;;;;10.33;8.73;;;;;;;;;;6380566;22;20419;-71
2021/09/02 07:23:08;;;;;;;14.93;8.30;;;;;;;;;;6380617;22;20378;-71
2021/09/02 07:32:00;;;;;;;8.93;6.90;;;;;;;;;;6379750;22;20378;-72
2021/09/02 07:34:26;;;;;;;8.63;7.27;;;;;;;;;;6369417;22;20367;-72
2021/09/02 07:36:52;;;;;;;10.27;7.87;;;;;;;;;;6369742;22;20482;-71
2021/09/02 07:39:18;;;;;;;13.97;7.60;;;;;;;;;;6380529;22;20380;-72
2021/09/02 07:41:44;;;;;;;8.97;7.17;;;;;;;;;;6368865;22;20739;-72
2021/09/02 07:44:10;;;;;;;10.60;7.17;;;;;;;;;;6368994;22;20398;-70
2021/09/02 07:46:36;;;;;;;9.17;7.27;;;;;;;;;;6369081;22;20371;-72
2021/09/02 07:49:02;;;;;;;7.63;6.93;;;;;;;;;;6341166;22;20379;-71
2021/09/02 07:51:28;;;;;;;7.97;7.23;;;;;;;;;;6340803;22;20444;-71
2021/09/02 07:53:54;;;;;;;7.90;6.40;;;;;;;;;;6369064;22;20379;-71
2021/09/02 07:56:20;;;;;;;7.03;6.30;;;;;;;;;;6379609;22;20822;-71
2021/09/02 07:58:46;;;;;;;10.63;7.80;;;;;;;;;;6368656;22;20387;-71
2021/09/02 08:01:13;;;;;;;7.37;6.47;;;;;;;;;;6368836;22;20430;-71
2021/09/02 08:03:40;;;;;;;8.57;7.20;;;;;;;;;;6368874;22;20375;-72
2021/09/02 08:06:06;;;;;;;7.23;6.50;;;;;;;;;;6379464;22;20428;-71
2021/09/02 08:08:32;;;;;;;8.30;7.00;;;;;;;;;;6368935;22;20374;-72
2021/09/02 08:10:58;;;;;;;7.70;6.83;;;;;;;;;;6368460;22;20399;-72
2021/09/02 08:13:24;;;;;;;7.60;6.80;;;;;;;;;;6368573;22;20392;-72
2021/09/02 08:15:50;;;;;;;8.33;7.20;;;;;;;;;;6368955;22;20454;-71
2021/09/02 08:18:16;;;;;;;7.80;6.77;;;;;;;;;;6369268;22;20802;-72
2021/09/02 08:20:42;;;;;;;9.30;6.90;;;;;;;;;;6368985;22;20427;-72
2021/09/02 08:23:09;;;;;;;9.80;6.37;;;;;;;;;;6369097;22;20893;-72
2021/09/02 08:25:35;;;;;;;8.97;7.50;;;;;;;;;;6368918;22;20735;-72
2021/09/02 08:31:04;;;;;;;15.73;7.80;;;;;;;;;;6380102;22;20382;-72
2021/09/02 08:33:30;;;;;;;7.10;6.07;;;;;;;;;;6368933;22;20364;-72
2021/09/02 08:35:56;;;;;;;8.70;7.47;;;;;;;;;;6368579;22;20464;-72
2021/09/02 08:38:22;;;;;;;7.33;6.60;;;;;;;;;;6379605;22;20651;-72
2021/09/02 08:40:48;;;;;;;8.77;7.30;;;;;;;;;;6379393;22;20423;-72
2021/09/02 08:46:18;;;;;;;7.43;6.57;;;;;;;;;;6379392;22;20882;-72
2021/09/02 08:48:45;;;;;;;6.73;5.93;;;;;;;;;;6368783;22;20841;-72
2021/09/02 08:51:11;;;;;;;10.73;6.67;;;;;;;;;;6368727;22;20368;-72
2021/09/02 08:53:37;;;;;;;8.33;6.43;;;;;;;;;;6368900;22;20876;-72
2021/09/02 08:56:03;;;;;;;7.17;6.47;;;;;;;;;;6368459;22;20363;-72
2021/09/02 09:01:32;;;;;;;7.00;6.20;;;;;;;;;;6379270;22;20472;-72
2021/09/02 09:03:59;;;;;;;6.90;6.20;;;;;;;;;;6368825;22;20371;-72
2021/09/02 09:06:30;;;;;;;7.27;6.57;;;;;;;;;;6368975;22;20375;-72
2021/09/02 09:08:56;;;;;;;8.27;6.27;;;;;;;;;;6369046;22;20424;-72
2021/09/02 09:11:25;;;;;;;7.63;6.40;;;;;;;;;;6340962;22;20891;-72
2021/09/02 09:14:05;;;;;;;10.30;6.67;;;;;;;;;;6379507;22;20879;-72
2021/09/02 09:16:41;;;;;;;7.53;6.40;;;;;;;;;;6368612;22;20921;-72
2021/09/02 09:19:07;;;;;;;10.83;6.90;;;;;;;;;;6368944;22;20367;-72
2021/09/02 09:21:33;;;;;;;6.47;5.43;;;;;;;;;;6368582;22;20429;-73
2021/09/02 09:24:07;;;;;;;8.20;6.67;;;;;;;;;;6368734;22;20363;-73
2021/09/02 09:26:33;;;;;;;7.43;6.53;;;;;;;;;;6368322;22;20434;-71
2021/09/02 09:29:04;;;;;;;6.87;6.17;;;;;;;;;;6340754;22;20687;-71
2021/09/02 09:31:34;;;;;;;10.10;7.40;;;;;;;;;;6368820;22;20477;-72
2021/09/02 09:34:04;;;;;;;7.30;6.50;;;;;;;;;;6368619;22;20412;-71
2021/09/02 09:36:31;;;;;;;9.43;6.67;;;;;;;;;;6368528;22;20382;-72
2021/09/02 09:39:01;;;;;;;7.20;6.17;;;;;;;;;;6379010;22;20375;-72
2021/09/02 09:47:20;;;;;;;6.63;6.03;;;;;;;;;;6379040;22;20357;-72
2021/09/02 09:49:52;;;;;;;8.10;5.70;;;;;;;;;;6378889;22;20790;-71
2021/09/02 09:52:29;;;;;;;6.53;5.93;;;;;;;;;;6379345;22;20445;-73
2021/09/02 09:55:04;;;;;;;7.27;6.57;;;;;;;;;;6368095;22;20453;-71
2021/09/02 09:57:31;;;;;;;6.20;5.60;;;;;;;;;;6375313;22;20362;-74
2021/09/02 10:00:00;;;;;;;6.50;5.50;;;;;;;;;;6378642;22;20427;-72
2021/09/02 10:02:26;;;;;;;6.17;5.57;;;;;;;;;;6340602;22;20403;-72
2021/09/02 10:04:53;;;;;;;6.70;6.00;;;;;;;;;;6368613;22;20443;-72
2021/09/02 10:07:21;;;;;;;6.87;6.17;;;;;;;;;;6368627;22;20375;-72
2021/09/02 10:09:47;;;;;;;7.00;6.10;;;;;;;;;;6368509;22;20356;-72
2021/09/02 10:12:13;;;;;;;5.80;5.20;;;;;;;;;;6378868;22;20469;-72
2021/09/02 10:14:39;;;;;;;6.00;5.40;;;;;;;;;;6368365;22;20359;-72
2021/09/02 10:17:05;;;;;;;6.17;5.50;;;;;;;;;;6368465;22;20373;-72
2021/09/02 10:19:33;;;;;;;5.70;5.20;;;;;;;;;;6368448;22;20413;-73
2021/09/02 10:22:02;;;;;;;6.50;5.77;;;;;;;;;;6367736;22;20375;-72
2021/09/02 10:24:36;;;;;;;6.10;5.20;;;;;;;;;;6367906;22;20382;-72
2021/09/02 10:27:22;;;;;;;5.93;5.30;;;;;;;;;;6370895;22;20443;-71
2021/09/02 10:29:48;;;;;;;5.57;4.93;;;;;;;;;;6346505;22;20389;-72
2021/09/02 10:32:24;;;;;;;6.20;5.70;;;;;;;;;;6367916;22;20420;-71
2021/09/02 10:34:50;;;;;;;7.57;6.30;;;;;;;;;;6379063;22;20439;-73
2021/09/02 10:37:34;;;;;;;5.87;5.30;;;;;;;;;;6368087;22;20375;-73
2021/09/02 10:40:00;;;;;;;5.33;4.83;;;;;;;;;;6378569;22;20699;-72
2021/09/02 10:43:01;;;;;;;6.73;5.87;;;;;;;;;;6367719;22;20407;-72
2021/09/02 10:45:27;;;;;;;5.47;4.97;;;;;;;;;;6240851;23;20399;-72
2021/09/02 10:47:55;;;;;;;5.67;4.73;;;;;;;;;;6342721;22;20411;-72
2021/09/02 10:50:25;;;;;;;4.93;4.47;;;;;;;;;;6367741;22;20433;-71
2021/09/02 10:52:51;;;;;;;9.57;4.97;;;;;;;;;;6367918;22;20387;-72
2021/09/02 10:55:26;;;;;;;5.30;4.77;;;;;;;;;;6368131;22;20367;-72
2021/09/02 10:57:52;;;;;;;5.60;5.10;;;;;;;;;;6368165;22;20371;-72
2021/09/02 11:00:37;;;;;;;6.20;4.90;;;;;;;;;;6364535;22;20487;-71
2021/09/02 11:03:13;;;;;;;5.13;4.60;;;;;;;;;;6367608;22;20370;-72
2021/09/02 11:05:40;;;;;;;4.83;4.43;;;;;;;;;;6366022;22;20428;-72
2021/09/02 11:08:06;;;;;;;4.87;4.40;;;;;;;;;;6377798;22;20412;-72
2021/09/02 11:10:32;;;;;;;6.20;5.50;;;;;;;;;;6378664;22;20470;-72
2021/09/02 11:13:00;;;;;;;4.67;4.00;;;;;;;;;;6368705;22;20818;-72
2021/09/02 11:15:26;;;;;;;5.00;4.30;;;;;;;;;;6369997;22;20371;-72
2021/09/02 11:17:53;;;;;;;4.20;3.80;;;;;;;;;;6380820;22;20458;-72
2021/09/02 11:20:20;;;;;;;12.83;5.00;;;;;;;;;;6369969;22;20411;-72
2021/09/02 11:22:46;;;;;;;4.70;4.20;;;;;;;;;;6341987;22;20394;-71
2021/09/02 11:25:13;;;;;;;5.97;4.40;;;;;;;;;;6369417;22;20492;-72
2021/09/02 11:27:39;;;;;;;5.40;4.40;;;;;;;;;;6369625;22;20458;-73
2021/09/02 11:30:17;;;;;;;5.93;5.20;;;;;;;;;;6382178;22;20419;-72
2021/09/02 11:32:44;;;;;;;6.30;4.43;;;;;;;;;;6381628;22;20527;-72
2021/09/02 11:35:11;;;;;;;4.97;4.47;;;;;;;;;;6369706;22;20363;-72
2021/09/02 11:37:38;;;;;;;5.07;4.30;;;;;;;;;;6380046;22;20383;-72
2021/09/02 11:40:04;;;;;;;4.70;4.20;;;;;;;;;;6369568;22;20403;-72
2021/09/02 11:42:32;;;;;;;5.40;4.47;;;;;;;;;;6369165;22;20423;-72
2021/09/02 11:48:06;;;;;;;5.10;4.03;;;;;;;;;;6380321;22;20361;-71
2021/09/02 11:50:33;;;;;;;5.63;3.90;;;;;;;;;;6369404;22;20395;-71
2021/09/02 11:52:59;;;;;;;6.17;4.30;;;;;;;;;;6380165;22;20417;-71
2021/09/02 11:55:32;;;;;;;4.13;3.60;;;;;;;;;;6369380;22;20363;-71
2021/09/02 11:58:03;;;;;;;5.20;4.00;;;;;;;;;;6369064;22;20413;-71
2021/09/02 12:00:30;;;;;;;7.03;3.90;;;;;;;;;;6369134;22;20464;-71
2021/09/02 12:02:57;;;;;;;6.47;4.33;;;;;;;;;;6379795;22;20387;-71
2021/09/02 12:05:27;;;;;;;4.50;4.10;;;;;;;;;;6380185;22;20379;-72
2021/09/02 12:07:55;;;;;;;5.10;3.37;;;;;;;;;;6369293;22;20387;-72
2021/09/02 12:10:21;;;;;;;4.63;4.13;;;;;;;;;;6369062;22;20371;-72
2021/09/02 12:18:37;;;;;;;6.00;3.37;;;;;;;;;;6378756;22;20365;-72
2021/09/02 12:21:10;;;;;;;4.53;4.13;;;;;;;;;;6378760;22;20464;-71
2021/09/02 12:23:51;;;;;;;8.47;4.33;;;;;;;;;;6379010;22;20375;-72
2021/09/02 12:26:19;;;;;;;6.30;3.87;;;;;;;;;;6374258;22;20454;-72
2021/09/02 12:28:46;;;;;;;6.13;3.87;;;;;;;;;;6378933;22;20387;-72
2021/09/02 12:31:30;;;;;;;8.67;3.90;;;;;;;;;;6379192;22;20364;-72
2021/09/02 12:33:59;;;;;;;5.67;3.97;;;;;;;;;;6368066;22;20376;-72
2021/09/02 12:36:25;;;;;;;4.30;3.90;;;;;;;;;;6378649;22;20948;-72
2021/09/02 12:38:51;;;;;;;3.90;3.50;;;;;;;;;;6368122;22;20379;-72
2021/09/02 12:41:19;;;;;;;5.30;4.47;;;;;;;;;;6367379;22;20430;-72
2021/09/02 12:44:04;;;;;;;3.90;3.50;;;;;;;;;;6368061;22;20378;-72
2021/09/02 12:46:30;;;;;;;5.00;3.80;;;;;;;;;;6378992;22;20422;-72
2021/09/02 12:49:08;;;;;;;5.60;4.70;;;;;;;;;;6378334;22;20375;-71
2021/09/02 12:51:34;;;;;;;3.97;3.57;;;;;;;;;;6367668;22;20442;-72
2021/09/02 12:54:00;;;;;;;4.07;3.67;;;;;;;;;;6379008;22;20402;-72
2021/09/02 12:56:33;;;;;;;5.10;3.80;;;;;;;;;;6367478;22;20371;-72
2021/09/02 12:58:59;;;;;;;7.03;3.77;;;;;;;;;;6367816;22;20368;-71
2021/09/02 13:01:25;;;;;;;4.27;3.73;;;;;;;;;;6368353;22;20431;-72
2021/09/02 13:03:51;;;;;;;4.27;3.87;;;;;;;;;;6367793;22;20368;-72
2021/09/02 13:06:16;;;;;;;4.20;3.80;;;;;;;;;;6367581;22;20466;-72
2021/09/02 13:08:42;;;;;;;4.13;3.70;;;;;;;;;;6367690;22;20393;-71
2021/09/02 13:11:08;;;;;;;4.97;3.70;;;;;;;;;;6367381;22;20380;-72
2021/09/02 13:13:34;;;;;;;6.40;4.23;;;;;;;;;;6367280;22;20450;-72
2021/09/02 13:16:01;;;;;;;3.47;3.17;;;;;;;;;;6367332;22;20371;-71
2021/09/02 13:18:27;;;;;;;4.57;3.83;;;;;;;;;;6367635;22;20402;-72
2021/09/02 13:20:53;;;;;;;4.70;3.97;;;;;;;;;;6367766;22;20426;-72
2021/09/02 13:23:19;;;;;;;4.17;3.80;;;;;;;;;;6378333;22;20450;-72
2021/09/02 13:25:50;;;;;;;5.93;4.13;;;;;;;;;;6367253;22;20881;-72
2021/09/02 13:28:16;;;;;;;10.40;4.60;;;;;;;;;;6367592;22;20398;-72
2021/09/02 13:33:45;;;;;;;4.90;4.40;;;;;;;;;;6378086;22;20370;-72
2021/09/02 13:36:11;;;;;;;4.03;3.30;;;;;;;;;;6377940;22;20371;-71
2021/09/02 13:38:38;;;;;;;5.40;4.00;;;;;;;;;;6366845;22;20379;-71
2021/09/02 13:41:04;;;;;;;4.30;3.87;;;;;;;;;;6377244;22;20464;-72
2021/09/02 13:43:30;;;;;;;3.70;3.40;;;;;;;;;;6367579;22;20454;-72
2021/09/02 13:45:56;;;;;;;5.37;3.43;;;;;;;;;;6367905;22;20459;-72
2021/09/02 13:48:22;;;;;;;4.13;3.80;;;;;;;;;;6378131;22;20374;-72
2021/09/02 13:50:48;;;;;;;7.97;4.30;;;;;;;;;;6378157;22;20371;-72
2021/09/02 13:53:14;;;;;;;5.70;3.60;;;;;;;;;;6378021;22;20385;-72
2021/09/02 13:55:40;;;;;;;5.67;4.00;;;;;;;;;;6367454;22;20416;-72
2021/09/02 13:58:06;;;;;;;6.13;3.50;;;;;;;;;;6367985;22;20390;-73
2021/09/02 14:03:36;;;;;;;3.70;3.40;;;;;;;;;;6378288;22;20378;-72
2021/09/02 14:06:02;;;;;;;3.80;3.50;;;;;;;;;;6366464;22;20363;-72
2021/09/02 14:08:28;;;;;;;4.83;3.50;;;;;;;;;;6367555;22;20367;-72
2021/09/02 14:10:54;;;;;;;4.87;3.87;;;;;;;;;;6367541;22;20359;-72
2021/09/02 14:13:20;;;;;;;4.07;3.27;;;;;;;;;;6367204;22;20830;-72
2021/09/02 14:18:50;;;;;;;4.17;3.77;;;;;;;;;;6378217;22;20951;-72
2021/09/02 14:21:16;;;;;;;4.67;4.27;;;;;;;;;;6367001;22;20458;-71
2021/09/02 14:23:42;;;;;;;3.93;3.30;;;;;;;;;;6367644;22;20402;-71
2021/09/02 14:26:07;;;;;;;4.57;4.00;;;;;;;;;;6366557;22;20900;-71
2021/09/02 14:28:33;;;;;;;5.00;4.20;;;;;;;;;;6367205;22;20367;-71
2021/09/02 14:34:03;;;;;;;4.43;3.80;;;;;;;;;;6377790;22;20396;-71
2021/09/02 14:36:29;;;;;;;4.30;3.90;;;;;;;;;;6367367;22;20371;-72
2021/09/02 14:38:55;;;;;;;5.00;4.43;;;;;;;;;;6367562;22;20376;-72
2021/09/02 14:41:21;;;;;;;4.70;3.80;;;;;;;;;;6367971;22;20426;-72
2021/09/02 14:49:35;;;;;;;4.07;3.70;;;;;;;;;;6379812;22;20370;-71
2021/09/02 14:52:01;;;;;;;5.70;4.00;;;;;;;;;;6380195;22;20374;-71
2021/09/02 14:54:27;;;;;;;4.40;4.00;;;;;;;;;;6369465;22;20442;-72
2021/09/02 14:56:53;;;;;;;5.40;4.40;;;;;;;;;;6368888;22;20367;-71
2021/09/02 14:59:19;;;;;;;5.03;4.53;;;;;;;;;;6379639;22;20400;-71
2021/09/02 15:01:46;;;;;;;4.80;4.07;;;;;;;;;;6369049;22;20514;-72
2021/09/02 15:04:12;;;;;;;4.93;3.37;;;;;;;;;;6368963;22;20400;-71
2021/09/02 15:06:38;;;;;;;4.20;3.73;;;;;;;;;;6368709;22;20854;-72
2021/09/02 15:09:03;;;;;;;6.50;4.60;;;;;;;;;;6368819;22;20363;-71
2021/09/02 15:11:30;;;;;;;7.37;5.17;;;;;;;;;;6368553;22;20444;-72
2021/09/02 15:13:55;;;;;;;5.00;4.13;;;;;;;;;;6379110;22;20375;-71
2021/09/02 15:16:21;;;;;;;4.63;3.83;;;;;;;;;;6379109;22;20452;-71
2021/09/02 15:18:47;;;;;;;5.07;3.87;;;;;;;;;;6340255;22;20391;-71
2021/09/02 15:21:13;;;;;;;5.73;4.47;;;;;;;;;;6368399;22;20436;-71
2021/09/02 15:23:39;;;;;;;5.53;4.87;;;;;;;;;;6368109;22;20369;-72
2021/09/02 15:26:05;;;;;;;4.33;3.93;;;;;;;;;;6367839;22;20434;-72
2021/09/02 15:28:31;;;;;;;4.60;4.03;;;;;;;;;;6368188;22;20813;-71
2021/09/02 15:34:01;;;;;;;5.00;4.60;;;;;;;;;;6378961;22;20523;-72
2021/09/02 15:36:27;;;;;;;5.17;4.67;;;;;;;;;;6378430;22;20462;-72
2021/09/02 15:38:53;;;;;;;4.60;4.20;;;;;;;;;;6368301;22;20399;-72
2021/09/02 15:41:19;;;;;;;4.73;4.00;;;;;;;;;;6367527;22;20423;-71
2021/09/02 15:43:45;;;;;;;6.57;4.87;;;;;;;;;;6368344;22;20367;-71
2021/09/02 15:49:14;;;;;;;5.07;4.53;;;;;;;;;;6378498;22;20431;-71
2021/09/02 15:51:40;;;;;;;5.43;4.43;;;;;;;;;;6372326;22;20916;-71
2021/09/02 15:54:06;;;;;;;4.70;4.30;;;;;;;;;;6367923;22;20453;-71
2021/09/02 15:56:32;;;;;;;5.93;4.80;;;;;;;;;;6378258;22;20371;-71
2021/09/02 15:58:58;;;;;;;7.00;4.50;;;;;;;;;;6339931;22;20481;-71
2021/09/02 16:04:28;;;;;;;5.93;4.57;;;;;;;;;;6377684;22;20832;-70
2021/09/02 16:06:54;;;;;;;4.97;4.47;;;;;;;;;;6378028;22;20375;-69
2021/09/02 16:09:20;;;;;;;6.13;4.70;;;;;;;;;;6367370;22;20366;-71
2021/09/02 16:11:46;;;;;;;5.90;5.37;;;;;;;;;;6367680;22;20394;-70
2021/09/02 16:14:12;;;;;;;5.37;4.60;;;;;;;;;;6378180;22;20375;-71
2021/09/02 16:19:41;;;;;;;5.17;4.67;;;;;;;;;;6377711;22;20374;-71
2021/09/02 16:22:07;;;;;;;4.80;4.40;;;;;;;;;;6367583;22;20410;-70
2021/09/02 16:24:34;;;;;;;4.80;4.30;;;;;;;;;;6368429;22;20370;-70
2021/09/02 16:27:00;;;;;;;6.50;4.83;;;;;;;;;;6366831;22;20829;-71
2021/09/02 16:29:26;;;;;;;5.23;4.73;;;;;;;;;;6366826;22;20387;-71
2021/09/02 16:31:51;;;;;;;5.13;4.60;;;;;;;;;;6377838;22;20398;-71
2021/09/02 16:34:17;;;;;;;5.57;4.43;;;;;;;;;;6367030;22;20378;-70
2021/09/02 16:36:44;;;;;;;5.20;4.50;;;;;;;;;;6366986;22;20419;-71
2021/09/02 16:39:10;;;;;;;5.10;4.70;;;;;;;;;;6366811;22;20378;-72
2021/09/02 16:41:36;;;;;;;6.03;5.37;;;;;;;;;;6366297;22;20510;-72
2021/09/02 16:44:03;;;;;;;7.80;5.43;;;;;;;;;;6377946;22;20440;-71
2021/09/02 16:49:33;;;;;;;4.17;3.77;;;;;;;;;;6377662;22;20394;-71
2021/09/02 16:51:59;;;;;;;5.40;4.37;;;;;;;;;;6363602;22;20447;-70
2021/09/02 16:54:26;;;;;;;5.10;4.23;;;;;;;;;;6363778;22;20370;-71